Forside
METAR-TAF:

METAR-TAF

Lufthavne :

Jinnah International Airport

Karachi, Pakistan

Breddekreds: 24-54N, længdekreds: 067-08E, højde: 21 m

Aktuelle vejr

Denne rapport blev lavet for 39 minutter siden, kl. 10:55 UTC
Vind 8 kt fra sydvest
Temperatur 33°C
Fugtighed 46%
Tryk 1009 hPa
Sigt: 6000 m

METAR: OPKC 171055Z 22008KT 6000 NSC 33/20 Q1009 NOSIG

Tid: 16:34 (11:34 UTC)

Vejrudsigter

Denne rapport blev lavet for 5 timer og 4 minutter siden, kl. 06:30 UTC
Foreløbig gælder fra 17 på 09 UTC til 17 på 18 UTC
Vind 5 kt fra sydvest med vindstød på up til 15 kt
Sigt: 6000 m

TAF: OPKC 170630Z 1709/1718 22005G15KT 6000 NSC

Vejrobservationer og prognoser fra mere end 4000 lufthavne (METAR og TAF).

De gule og røde prikker repræsenterer de meteorologiske stationer.

Flyt musen over at se navnet på stationen.

Så klik over at se vejr observationer og prognoser.

At skifte det kort: Klik på de grønne knapper med et sort kors for at zoome ind; på den grønne knap med en bindestreg for at zoome ud; eller på de grønne pile for tilstødende kort.


METAR-TAF: